sensor_id;sensor_type;location;lat;lon;timestamp;P1;durP1;ratioP1;P2;durP2;ratioP2
23242;SDS011;11790;49.578;11.214;2024-02-16T00:00:29;10.45;;;6.03;;
23242;SDS011;11790;49.578;11.214;2024-02-16T00:05:29;12.57;;;6.78;;
23242;SDS011;11790;49.578;11.214;2024-02-16T00:10:29;9.77;;;6.55;;
23242;SDS011;11790;49.578;11.214;2024-02-16T00:15:30;10.20;;;5.75;;
23242;SDS011;11790;49.578;11.214;2024-02-16T00:20:30;7.50;;;5.65;;
23242;SDS011;11790;49.578;11.214;2024-02-16T00:25:31;8.60;;;6.03;;
23242;SDS011;11790;49.578;11.214;2024-02-16T00:30:31;12.85;;;6.32;;
23242;SDS011;11790;49.578;11.214;2024-02-16T00:35:31;11.32;;;5.85;;
23242;SDS011;11790;49.578;11.214;2024-02-16T00:40:33;9.55;;;4.70;;
23242;SDS011;11790;49.578;11.214;2024-02-16T00:45:33;20.92;;;6.45;;
23242;SDS011;11790;49.578;11.214;2024-02-16T00:50:33;6.95;;;5.05;;
23242;SDS011;11790;49.578;11.214;2024-02-16T00:55:34;9.45;;;4.82;;
23242;SDS011;11790;49.578;11.214;2024-02-16T01:00:35;6.57;;;4.20;;
23242;SDS011;11790;49.578;11.214;2024-02-16T01:05:35;7.00;;;5.10;;
23242;SDS011;11790;49.578;11.214;2024-02-16T01:10:36;7.38;;;4.32;;
23242;SDS011;11790;49.578;11.214;2024-02-16T01:15:36;6.20;;;4.65;;
23242;SDS011;11790;49.578;11.214;2024-02-16T01:20:37;6.30;;;4.45;;
23242;SDS011;11790;49.578;11.214;2024-02-16T01:25:37;10.77;;;4.95;;
23242;SDS011;11790;49.578;11.214;2024-02-16T01:30:38;5.60;;;4.32;;
23242;SDS011;11790;49.578;11.214;2024-02-16T01:35:38;7.22;;;5.07;;
23242;SDS011;11790;49.578;11.214;2024-02-16T01:40:39;5.93;;;4.50;;
23242;SDS011;11790;49.578;11.214;2024-02-16T01:45:39;6.30;;;3.72;;
23242;SDS011;11790;49.578;11.214;2024-02-16T01:50:40;8.65;;;4.78;;
23242;SDS011;11790;49.578;11.214;2024-02-16T01:55:41;9.20;;;5.15;;
23242;SDS011;11790;49.578;11.214;2024-02-16T02:00:41;7.10;;;4.63;;
23242;SDS011;11790;49.578;11.214;2024-02-16T02:05:45;7.63;;;4.35;;
23242;SDS011;11790;49.578;11.214;2024-02-16T02:10:45;6.47;;;4.13;;
23242;SDS011;11790;49.578;11.214;2024-02-16T02:15:45;7.28;;;4.00;;
23242;SDS011;11790;49.578;11.214;2024-02-16T02:20:46;6.75;;;4.10;;
23242;SDS011;11790;49.578;11.214;2024-02-16T02:25:46;5.32;;;3.60;;
23242;SDS011;11790;49.578;11.214;2024-02-16T02:30:47;5.78;;;3.78;;
23242;SDS011;11790;49.578;11.214;2024-02-16T02:35:48;5.20;;;3.20;;
23242;SDS011;11790;49.578;11.214;2024-02-16T02:40:48;4.57;;;3.20;;
23242;SDS011;11790;49.578;11.214;2024-02-16T02:45:48;8.80;;;3.67;;
23242;SDS011;11790;49.578;11.214;2024-02-16T02:50:48;4.93;;;3.15;;
23242;SDS011;11790;49.578;11.214;2024-02-16T02:55:49;4.18;;;3.42;;
23242;SDS011;11790;49.578;11.214;2024-02-16T03:06:26;9.43;;;3.65;;
23242;SDS011;11790;49.578;11.214;2024-02-16T03:11:27;6.22;;;3.28;;
23242;SDS011;11790;49.578;11.214;2024-02-16T03:16:27;9.35;;;4.10;;
23242;SDS011;11790;49.578;11.214;2024-02-16T03:21:28;5.32;;;3.40;;
23242;SDS011;11790;49.578;11.214;2024-02-16T03:26:29;8.50;;;3.60;;
23242;SDS011;11790;49.578;11.214;2024-02-16T03:31:29;7.63;;;3.78;;
23242;SDS011;11790;49.578;11.214;2024-02-16T03:36:30;3.53;;;2.80;;
23242;SDS011;11790;49.578;11.214;2024-02-16T03:41:30;18.73;;;3.70;;
23242;SDS011;11790;49.578;11.214;2024-02-16T03:46:30;5.80;;;3.40;;
23242;SDS011;11790;49.578;11.214;2024-02-16T03:51:31;6.53;;;3.85;;
23242;SDS011;11790;49.578;11.214;2024-02-16T03:56:31;5.95;;;3.45;;
23242;SDS011;11790;49.578;11.214;2024-02-16T04:01:31;10.20;;;3.20;;
23242;SDS011;11790;49.578;11.214;2024-02-16T04:06:31;4.22;;;2.88;;
23242;SDS011;11790;49.578;11.214;2024-02-16T04:11:32;5.55;;;3.25;;
23242;SDS011;11790;49.578;11.214;2024-02-16T04:16:32;8.90;;;3.20;;
23242;SDS011;11790;49.578;11.214;2024-02-16T04:21:32;4.68;;;2.92;;
23242;SDS011;11790;49.578;11.214;2024-02-16T04:26:32;4.45;;;3.00;;
23242;SDS011;11790;49.578;11.214;2024-02-16T04:31:32;6.70;;;3.72;;
23242;SDS011;11790;49.578;11.214;2024-02-16T04:36:33;4.87;;;3.17;;
23242;SDS011;11790;49.578;11.214;2024-02-16T04:41:33;6.13;;;3.70;;
23242;SDS011;11790;49.578;11.214;2024-02-16T04:46:33;5.70;;;3.40;;
23242;SDS011;11790;49.578;11.214;2024-02-16T04:51:33;6.93;;;3.60;;
23242;SDS011;11790;49.578;11.214;2024-02-16T04:56:33;6.28;;;3.53;;
23242;SDS011;11790;49.578;11.214;2024-02-16T05:01:34;5.32;;;3.45;;
23242;SDS011;11790;49.578;11.214;2024-02-16T05:06:38;7.22;;;3.80;;
23242;SDS011;11790;49.578;11.214;2024-02-16T05:11:38;7.25;;;4.45;;
23242;SDS011;11790;49.578;11.214;2024-02-16T05:16:43;6.60;;;4.20;;
23242;SDS011;11790;49.578;11.214;2024-02-16T05:21:43;11.27;;;4.75;;
23242;SDS011;11790;49.578;11.214;2024-02-16T05:26:44;9.45;;;4.78;;
23242;SDS011;11790;49.578;11.214;2024-02-16T05:31:45;8.65;;;4.70;;
23242;SDS011;11790;49.578;11.214;2024-02-16T05:36:46;8.60;;;5.32;;
23242;SDS011;11790;49.578;11.214;2024-02-16T05:41:46;10.85;;;5.57;;
23242;SDS011;11790;49.578;11.214;2024-02-16T05:46:46;9.93;;;5.97;;
23242;SDS011;11790;49.578;11.214;2024-02-16T05:51:47;7.78;;;5.40;;
23242;SDS011;11790;49.578;11.214;2024-02-16T05:57:06;8.75;;;5.30;;
23242;SDS011;11790;49.578;11.214;2024-02-16T06:02:09;10.15;;;5.82;;
23242;SDS011;11790;49.578;11.214;2024-02-16T06:07:10;8.05;;;5.30;;
23242;SDS011;11790;49.578;11.214;2024-02-16T06:12:11;9.60;;;6.60;;
23242;SDS011;11790;49.578;11.214;2024-02-16T06:17:12;12.77;;;6.03;;
23242;SDS011;11790;49.578;11.214;2024-02-16T06:22:14;10.27;;;5.70;;
23242;SDS011;11790;49.578;11.214;2024-02-16T06:27:14;7.03;;;5.50;;
23242;SDS011;11790;49.578;11.214;2024-02-16T06:32:15;10.30;;;6.07;;
23242;SDS011;11790;49.578;11.214;2024-02-16T06:37:17;13.35;;;8.07;;
23242;SDS011;11790;49.578;11.214;2024-02-16T06:42:17;13.52;;;7.60;;
23242;SDS011;11790;49.578;11.214;2024-02-16T06:47:17;10.98;;;7.30;;
23242;SDS011;11790;49.578;11.214;2024-02-16T06:52:18;13.63;;;7.00;;
23242;SDS011;11790;49.578;11.214;2024-02-16T06:57:19;11.15;;;6.72;;
23242;SDS011;11790;49.578;11.214;2024-02-16T07:02:20;9.57;;;6.07;;
23242;SDS011;11790;49.578;11.214;2024-02-16T07:07:20;11.98;;;7.55;;
23242;SDS011;11790;49.578;11.214;2024-02-16T07:12:21;11.43;;;7.20;;
23242;SDS011;11790;49.578;11.214;2024-02-16T07:17:21;14.00;;;7.70;;
23242;SDS011;11790;49.578;11.214;2024-02-16T07:22:21;10.70;;;6.65;;
23242;SDS011;11790;49.578;11.214;2024-02-16T07:27:22;14.63;;;7.50;;
23242;SDS011;11790;49.578;11.214;2024-02-16T07:32:22;11.93;;;8.07;;
23242;SDS011;11790;49.578;11.214;2024-02-16T07:37:22;13.38;;;7.57;;
23242;SDS011;11790;49.578;11.214;2024-02-16T07:42:22;12.73;;;7.85;;
23242;SDS011;11790;49.578;11.214;2024-02-16T07:47:23;10.93;;;6.70;;
23242;SDS011;11790;49.578;11.214;2024-02-16T07:52:23;8.73;;;5.88;;
23242;SDS011;11790;49.578;11.214;2024-02-16T07:57:23;11.70;;;5.63;;
23242;SDS011;11790;49.578;11.214;2024-02-16T08:08:01;6.05;;;4.47;;
23242;SDS011;11790;49.578;11.214;2024-02-16T08:13:01;7.50;;;4.32;;
23242;SDS011;11790;49.578;11.214;2024-02-16T08:18:02;6.82;;;4.05;;
23242;SDS011;11790;49.578;11.214;2024-02-16T08:23:03;7.18;;;4.75;;
23242;SDS011;11790;49.578;11.214;2024-02-16T08:28:03;6.53;;;4.03;;
23242;SDS011;11790;49.578;11.214;2024-02-16T08:33:03;6.47;;;4.27;;
23242;SDS011;11790;49.578;11.214;2024-02-16T08:38:04;6.32;;;4.28;;
23242;SDS011;11790;49.578;11.214;2024-02-16T08:43:05;7.43;;;4.32;;
23242;SDS011;11790;49.578;11.214;2024-02-16T08:48:07;6.07;;;4.60;;
23242;SDS011;11790;49.578;11.214;2024-02-16T08:53:07;4.83;;;3.93;;
23242;SDS011;11790;49.578;11.214;2024-02-16T08:58:10;6.88;;;4.60;;
23242;SDS011;11790;49.578;11.214;2024-02-16T09:03:10;5.72;;;4.38;;
23242;SDS011;11790;49.578;11.214;2024-02-16T09:08:10;11.20;;;7.20;;
23242;SDS011;11790;49.578;11.214;2024-02-16T09:13:11;6.07;;;4.70;;
23242;SDS011;11790;49.578;11.214;2024-02-16T09:18:11;7.45;;;4.90;;
23242;SDS011;11790;49.578;11.214;2024-02-16T09:23:12;11.73;;;5.05;;
23242;SDS011;11790;49.578;11.214;2024-02-16T09:38:21;5.70;;;4.15;;
23242;SDS011;11790;49.578;11.214;2024-02-16T09:43:28;6.05;;;4.38;;
23242;SDS011;11790;49.578;11.214;2024-02-16T09:48:29;6.60;;;4.47;;
23242;SDS011;11790;49.578;11.214;2024-02-16T09:53:29;9.05;;;4.75;;
23242;SDS011;11790;49.578;11.214;2024-02-16T09:58:29;7.22;;;4.50;;
23242;SDS011;11790;49.578;11.214;2024-02-16T10:03:30;7.03;;;4.43;;
23242;SDS011;11790;49.578;11.214;2024-02-16T10:08:33;6.40;;;4.32;;
23242;SDS011;11790;49.578;11.214;2024-02-16T10:13:34;10.32;;;4.30;;
23242;SDS011;11790;49.578;11.214;2024-02-16T10:18:35;6.18;;;4.30;;
23242;SDS011;11790;49.578;11.214;2024-02-16T10:23:35;6.53;;;4.45;;
23242;SDS011;11790;49.578;11.214;2024-02-16T10:28:36;6.18;;;4.00;;
23242;SDS011;11790;49.578;11.214;2024-02-16T10:33:37;7.50;;;4.18;;
23242;SDS011;11790;49.578;11.214;2024-02-16T10:38:38;6.22;;;4.20;;
23242;SDS011;11790;49.578;11.214;2024-02-16T10:43:39;6.00;;;4.57;;
23242;SDS011;11790;49.578;11.214;2024-02-16T10:48:39;5.43;;;4.28;;
23242;SDS011;11790;49.578;11.214;2024-02-16T10:53:40;8.73;;;4.55;;
23242;SDS011;11790;49.578;11.214;2024-02-16T10:58:41;5.40;;;3.83;;
23242;SDS011;11790;49.578;11.214;2024-02-16T11:03:41;8.27;;;4.43;;
23242;SDS011;11790;49.578;11.214;2024-02-16T11:08:42;7.95;;;5.43;;
23242;SDS011;11790;49.578;11.214;2024-02-16T11:13:42;7.35;;;4.97;;
23242;SDS011;11790;49.578;11.214;2024-02-16T11:18:42;9.85;;;5.20;;
23242;SDS011;11790;49.578;11.214;2024-02-16T11:23:49;8.23;;;5.07;;
23242;SDS011;11790;49.578;11.214;2024-02-16T11:28:50;9.10;;;5.18;;
23242;SDS011;11790;49.578;11.214;2024-02-16T11:33:50;8.07;;;4.87;;
23242;SDS011;11790;49.578;11.214;2024-02-16T11:38:50;7.50;;;4.97;;
23242;SDS011;11790;49.578;11.214;2024-02-16T11:43:58;10.67;;;5.10;;
23242;SDS011;11790;49.578;11.214;2024-02-16T11:49:05;7.70;;;4.70;;
23242;SDS011;11790;49.578;11.214;2024-02-16T11:54:05;8.25;;;4.95;;
23242;SDS011;11790;49.578;11.214;2024-02-16T11:59:06;8.68;;;4.97;;
23242;SDS011;11790;49.578;11.214;2024-02-16T12:04:06;7.03;;;4.80;;
23242;SDS011;11790;49.578;11.214;2024-02-16T12:09:07;8.30;;;5.37;;
23242;SDS011;11790;49.578;11.214;2024-02-16T12:14:09;7.88;;;4.57;;
23242;SDS011;11790;49.578;11.214;2024-02-16T12:19:11;7.18;;;4.57;;
23242;SDS011;11790;49.578;11.214;2024-02-16T12:24:11;7.57;;;4.40;;
23242;SDS011;11790;49.578;11.214;2024-02-16T12:29:12;6.50;;;4.57;;
23242;SDS011;11790;49.578;11.214;2024-02-16T12:34:13;6.47;;;4.38;;
23242;SDS011;11790;49.578;11.214;2024-02-16T12:39:13;7.05;;;4.07;;
23242;SDS011;11790;49.578;11.214;2024-02-16T12:44:15;5.68;;;3.85;;
23242;SDS011;11790;49.578;11.214;2024-02-16T12:49:16;5.75;;;4.13;;
23242;SDS011;11790;49.578;11.214;2024-02-16T12:54:16;5.75;;;3.70;;
23242;SDS011;11790;49.578;11.214;2024-02-16T12:59:19;5.90;;;3.88;;
23242;SDS011;11790;49.578;11.214;2024-02-16T13:04:19;6.38;;;3.90;;
23242;SDS011;11790;49.578;11.214;2024-02-16T13:09:21;5.82;;;3.35;;
23242;SDS011;11790;49.578;11.214;2024-02-16T13:14:21;5.85;;;4.07;;
23242;SDS011;11790;49.578;11.214;2024-02-16T13:19:22;8.20;;;4.40;;
23242;SDS011;11790;49.578;11.214;2024-02-16T13:24:22;7.57;;;4.20;;
23242;SDS011;11790;49.578;11.214;2024-02-16T13:29:22;8.90;;;4.20;;
23242;SDS011;11790;49.578;11.214;2024-02-16T13:34:23;6.25;;;3.55;;
23242;SDS011;11790;49.578;11.214;2024-02-16T13:39:23;5.45;;;3.20;;
23242;SDS011;11790;49.578;11.214;2024-02-16T13:44:24;6.15;;;3.13;;
23242;SDS011;11790;49.578;11.214;2024-02-16T13:49:25;7.15;;;3.35;;
23242;SDS011;11790;49.578;11.214;2024-02-16T13:54:27;7.57;;;4.10;;
23242;SDS011;11790;49.578;11.214;2024-02-16T13:59:27;5.55;;;3.53;;
23242;SDS011;11790;49.578;11.214;2024-02-16T14:04:30;4.85;;;3.20;;
23242;SDS011;11790;49.578;11.214;2024-02-16T14:09:30;4.28;;;2.97;;
23242;SDS011;11790;49.578;11.214;2024-02-16T14:14:31;3.47;;;2.63;;
23242;SDS011;11790;49.578;11.214;2024-02-16T14:19:31;4.45;;;3.08;;
23242;SDS011;11790;49.578;11.214;2024-02-16T14:24:31;3.63;;;2.77;;
23242;SDS011;11790;49.578;11.214;2024-02-16T14:29:31;7.10;;;3.10;;
23242;SDS011;11790;49.578;11.214;2024-02-16T14:34:32;5.32;;;3.00;;
23242;SDS011;11790;49.578;11.214;2024-02-16T14:39:32;5.25;;;2.45;;
23242;SDS011;11790;49.578;11.214;2024-02-16T14:44:32;6.38;;;2.97;;
23242;SDS011;11790;49.578;11.214;2024-02-16T14:49:32;4.90;;;2.92;;
23242;SDS011;11790;49.578;11.214;2024-02-16T14:54:34;3.92;;;2.63;;
23242;SDS011;11790;49.578;11.214;2024-02-16T14:59:34;3.85;;;2.83;;
23242;SDS011;11790;49.578;11.214;2024-02-16T15:04:34;6.78;;;3.05;;
23242;SDS011;11790;49.578;11.214;2024-02-16T15:09:34;4.55;;;3.00;;
23242;SDS011;11790;49.578;11.214;2024-02-16T15:14:35;4.38;;;2.78;;
23242;SDS011;11790;49.578;11.214;2024-02-16T15:19:35;5.78;;;2.55;;
23242;SDS011;11790;49.578;11.214;2024-02-16T15:24:35;4.13;;;2.85;;
23242;SDS011;11790;49.578;11.214;2024-02-16T15:29:35;4.73;;;3.10;;
23242;SDS011;11790;49.578;11.214;2024-02-16T15:34:36;6.35;;;3.28;;
23242;SDS011;11790;49.578;11.214;2024-02-16T15:39:36;5.03;;;3.00;;
23242;SDS011;11790;49.578;11.214;2024-02-16T15:44:36;4.47;;;2.87;;
23242;SDS011;11790;49.578;11.214;2024-02-16T15:49:37;7.00;;;3.75;;
23242;SDS011;11790;49.578;11.214;2024-02-16T15:54:37;7.35;;;4.10;;
23242;SDS011;11790;49.578;11.214;2024-02-16T15:59:38;6.10;;;3.75;;
23242;SDS011;11790;49.578;11.214;2024-02-16T16:04:38;9.00;;;4.40;;
23242;SDS011;11790;49.578;11.214;2024-02-16T16:09:39;7.15;;;3.67;;
23242;SDS011;11790;49.578;11.214;2024-02-16T16:14:39;5.63;;;3.70;;
23242;SDS011;11790;49.578;11.214;2024-02-16T16:19:40;7.32;;;4.13;;
23242;SDS011;11790;49.578;11.214;2024-02-16T16:24:40;5.38;;;3.60;;
23242;SDS011;11790;49.578;11.214;2024-02-16T16:29:43;5.80;;;3.90;;
23242;SDS011;11790;49.578;11.214;2024-02-16T16:34:44;4.68;;;3.67;;
23242;SDS011;11790;49.578;11.214;2024-02-16T16:39:44;6.57;;;4.43;;
23242;SDS011;11790;49.578;11.214;2024-02-16T16:44:44;19.43;;;9.47;;
23242;SDS011;11790;49.578;11.214;2024-02-16T16:49:45;10.18;;;6.68;;
23242;SDS011;11790;49.578;11.214;2024-02-16T16:54:46;13.90;;;6.25;;
23242;SDS011;11790;49.578;11.214;2024-02-16T16:59:46;9.70;;;6.28;;
23242;SDS011;11790;49.578;11.214;2024-02-16T17:04:47;8.90;;;5.13;;
23242;SDS011;11790;49.578;11.214;2024-02-16T17:09:51;8.85;;;5.38;;
23242;SDS011;11790;49.578;11.214;2024-02-16T17:14:56;17.50;;;5.20;;
23242;SDS011;11790;49.578;11.214;2024-02-16T17:19:57;8.48;;;4.18;;
23242;SDS011;11790;49.578;11.214;2024-02-16T17:24:57;6.80;;;4.63;;
23242;SDS011;11790;49.578;11.214;2024-02-16T17:29:57;10.30;;;5.37;;
23242;SDS011;11790;49.578;11.214;2024-02-16T17:34:58;8.67;;;4.63;;
23242;SDS011;11790;49.578;11.214;2024-02-16T17:39:58;9.27;;;5.05;;
23242;SDS011;11790;49.578;11.214;2024-02-16T17:44:58;8.93;;;5.20;;
23242;SDS011;11790;49.578;11.214;2024-02-16T17:49:58;8.55;;;5.97;;
23242;SDS011;11790;49.578;11.214;2024-02-16T17:54:59;10.88;;;5.20;;
23242;SDS011;11790;49.578;11.214;2024-02-16T18:00:00;9.13;;;5.57;;
23242;SDS011;11790;49.578;11.214;2024-02-16T18:05:00;10.25;;;6.40;;
23242;SDS011;11790;49.578;11.214;2024-02-16T18:10:01;15.20;;;8.20;;
23242;SDS011;11790;49.578;11.214;2024-02-16T18:15:04;14.48;;;7.47;;
23242;SDS011;11790;49.578;11.214;2024-02-16T18:20:05;12.18;;;7.90;;
23242;SDS011;11790;49.578;11.214;2024-02-16T18:25:06;11.43;;;7.30;;
23242;SDS011;11790;49.578;11.214;2024-02-16T18:30:07;12.25;;;9.02;;
23242;SDS011;11790;49.578;11.214;2024-02-16T18:35:07;12.85;;;8.38;;
23242;SDS011;11790;49.578;11.214;2024-02-16T18:40:09;14.15;;;9.65;;
23242;SDS011;11790;49.578;11.214;2024-02-16T18:45:10;14.93;;;9.75;;
23242;SDS011;11790;49.578;11.214;2024-02-16T18:50:10;18.48;;;9.15;;
23242;SDS011;11790;49.578;11.214;2024-02-16T18:55:11;14.68;;;8.10;;
23242;SDS011;11790;49.578;11.214;2024-02-16T19:00:11;16.27;;;7.75;;
23242;SDS011;11790;49.578;11.214;2024-02-16T19:05:12;13.75;;;7.47;;
23242;SDS011;11790;49.578;11.214;2024-02-16T19:10:13;12.13;;;6.63;;
23242;SDS011;11790;49.578;11.214;2024-02-16T19:15:13;12.52;;;6.47;;
23242;SDS011;11790;49.578;11.214;2024-02-16T19:20:13;13.25;;;6.55;;
23242;SDS011;11790;49.578;11.214;2024-02-16T19:25:13;11.18;;;5.97;;
23242;SDS011;11790;49.578;11.214;2024-02-16T19:30:14;10.30;;;5.32;;
23242;SDS011;11790;49.578;11.214;2024-02-16T19:35:14;10.00;;;5.22;;
23242;SDS011;11790;49.578;11.214;2024-02-16T19:40:21;10.23;;;5.72;;
23242;SDS011;11790;49.578;11.214;2024-02-16T19:45:21;12.65;;;5.50;;
23242;SDS011;11790;49.578;11.214;2024-02-16T19:50:21;11.27;;;6.17;;
23242;SDS011;11790;49.578;11.214;2024-02-16T19:55:21;11.18;;;6.15;;
23242;SDS011;11790;49.578;11.214;2024-02-16T20:00:22;12.32;;;7.18;;
23242;SDS011;11790;49.578;11.214;2024-02-16T20:05:22;13.27;;;6.55;;
23242;SDS011;11790;49.578;11.214;2024-02-16T20:10:24;11.95;;;6.90;;
23242;SDS011;11790;49.578;11.214;2024-02-16T20:15:24;9.55;;;6.60;;
23242;SDS011;11790;49.578;11.214;2024-02-16T20:20:28;9.10;;;6.13;;
23242;SDS011;11790;49.578;11.214;2024-02-16T20:25:28;11.10;;;7.35;;
23242;SDS011;11790;49.578;11.214;2024-02-16T20:30:30;13.15;;;7.15;;
23242;SDS011;11790;49.578;11.214;2024-02-16T20:35:30;10.57;;;6.30;;
23242;SDS011;11790;49.578;11.214;2024-02-16T20:40:34;12.23;;;7.00;;
23242;SDS011;11790;49.578;11.214;2024-02-16T20:45:34;13.35;;;7.15;;
23242;SDS011;11790;49.578;11.214;2024-02-16T20:50:36;12.10;;;6.40;;
23242;SDS011;11790;49.578;11.214;2024-02-16T20:55:37;15.32;;;8.80;;
23242;SDS011;11790;49.578;11.214;2024-02-16T21:00:37;15.90;;;8.30;;
23242;SDS011;11790;49.578;11.214;2024-02-16T21:05:37;11.63;;;7.82;;
23242;SDS011;11790;49.578;11.214;2024-02-16T21:10:38;17.10;;;8.80;;
23242;SDS011;11790;49.578;11.214;2024-02-16T21:15:38;15.30;;;9.20;;
23242;SDS011;11790;49.578;11.214;2024-02-16T21:20:38;16.95;;;9.65;;
23242;SDS011;11790;49.578;11.214;2024-02-16T21:25:38;14.07;;;9.02;;
23242;SDS011;11790;49.578;11.214;2024-02-16T21:30:38;15.05;;;8.93;;
23242;SDS011;11790;49.578;11.214;2024-02-16T21:35:39;16.70;;;9.52;;
23242;SDS011;11790;49.578;11.214;2024-02-16T21:40:41;16.33;;;9.63;;
23242;SDS011;11790;49.578;11.214;2024-02-16T21:45:43;16.02;;;10.45;;
23242;SDS011;11790;49.578;11.214;2024-02-16T21:50:43;20.30;;;10.77;;
23242;SDS011;11790;49.578;11.214;2024-02-16T21:55:43;17.67;;;11.18;;
23242;SDS011;11790;49.578;11.214;2024-02-16T22:00:43;16.73;;;10.68;;
23242;SDS011;11790;49.578;11.214;2024-02-16T22:05:44;17.35;;;9.27;;
23242;SDS011;11790;49.578;11.214;2024-02-16T22:10:44;14.40;;;8.70;;
23242;SDS011;11790;49.578;11.214;2024-02-16T22:15:44;17.23;;;8.25;;
23242;SDS011;11790;49.578;11.214;2024-02-16T22:20:46;16.92;;;8.77;;
23242;SDS011;11790;49.578;11.214;2024-02-16T22:25:47;14.85;;;8.70;;
23242;SDS011;11790;49.578;11.214;2024-02-16T22:30:47;17.88;;;8.57;;
23242;SDS011;11790;49.578;11.214;2024-02-16T22:35:47;18.30;;;9.23;;
23242;SDS011;11790;49.578;11.214;2024-02-16T22:40:48;13.57;;;8.48;;
23242;SDS011;11790;49.578;11.214;2024-02-16T22:45:49;12.35;;;8.32;;
23242;SDS011;11790;49.578;11.214;2024-02-16T22:50:49;15.60;;;8.18;;
23242;SDS011;11790;49.578;11.214;2024-02-16T22:55:49;12.23;;;7.13;;
23242;SDS011;11790;49.578;11.214;2024-02-16T23:00:49;12.10;;;7.63;;
23242;SDS011;11790;49.578;11.214;2024-02-16T23:05:55;14.00;;;8.13;;
23242;SDS011;11790;49.578;11.214;2024-02-16T23:15:59;11.98;;;7.20;;
23242;SDS011;11790;49.578;11.214;2024-02-16T23:21:03;12.40;;;7.43;;
23242;SDS011;11790;49.578;11.214;2024-02-16T23:26:03;11.93;;;7.40;;
23242;SDS011;11790;49.578;11.214;2024-02-16T23:31:06;10.00;;;6.57;;
23242;SDS011;11790;49.578;11.214;2024-02-16T23:36:07;9.85;;;7.25;;
23242;SDS011;11790;49.578;11.214;2024-02-16T23:41:07;12.10;;;8.18;;
23242;SDS011;11790;49.578;11.214;2024-02-16T23:46:08;9.07;;;7.10;;
23242;SDS011;11790;49.578;11.214;2024-02-16T23:51:08;10.70;;;7.68;;
23242;SDS011;11790;49.578;11.214;2024-02-16T23:56:09;11.57;;;7.05;;
